Terminal Aerodrome Forecast
Issued by NWS Chicago, IL

Home | Current Version | Previous Version | Graphics & Text | Print | Product List | Glossary On
Versions: 1 2 3 4 5 6 7 8 9 10 11 12 13 14 15 16 17 18 19 20 21 22 23 24 25 26 27 28 29 30 31 32
000
FTUS43 KLOT 292326
TAFRFD
TAF
KRFD 292326Z 3000/3024 35004KT P6SM SCT012 BKN020
     FM300100 05003KT 4SM BR BKN010 OVC025
     FM300400 03003KT 1/2SM FG OVC002
      TEMPO 3008/3012 1/4SM FG
     FM301500 VRB03KT 3SM HZ SCT005 BKN009
     FM301800 19004KT P6SM SCT010 BKN025
     FM302300 VRB02KT P6SM FEW025 SCT250=

USA.gov is the U.S. government's official web portal to all federal, state and local government web resources and services.